Time,TemperatureF,DewpointF,PressureIn,WindDirection,WindDirectionDegrees,WindSpeedMPH,WindSpeedGustMPH,Humidity,HourlyPrecipIn,Conditions,Clouds,dailyrainin,SoftwareType,DateUTC
2013-01-22 08:02:00,16.5,0.2,29.98,WSW,256,0.0,3.0,48,0.00,,,0.00,Wunderground v.1.15,2013-01-22 13:02:00,
2013-01-22 08:08:00,16.5,0.2,29.98,WNW,302,0.0,10.0,48,0.00,,,0.00,Wunderground v.1.15,2013-01-22 13:08:00,
2013-01-22 08:13:00,16.7,0.4,29.98,West,275,0.0,7.0,48,0.00,,,0.00,Wunderground v.1.15,2013-01-22 13:13:00,
2013-01-22 08:18:00,16.7,0.4,29.98,WSW,252,2.0,7.0,48,0.00,,,0.00,Wunderground v.1.15,2013-01-22 13:18:00,
2013-01-22 08:23:00,16.9,0.6,29.98,WNW,302,2.0,9.0,48,0.00,,,0.00,Wunderground v.1.15,2013-01-22 13:23:00,
2013-01-22 08:29:00,16.9,0.1,29.98,NW,318,5.0,5.0,47,0.00,,,0.00,Wunderground v.1.15,2013-01-22 13:29:00,
2013-01-22 08:34:00,17.0,0.2,29.99,NW,306,5.0,7.0,47,0.00,,,0.00,Wunderground v.1.15,2013-01-22 13:34:00,
2013-01-22 08:39:00,17.2,0.4,29.99,NW,323,3.0,3.0,47,0.00,,,0.00,Wunderground v.1.15,2013-01-22 13:39:00,
2013-01-22 08:44:00,17.3,0.0,29.99,WNW,300,1.0,12.0,46,0.00,,,0.00,Wunderground v.1.15,2013-01-22 13:44:00,
2013-01-22 08:49:00,17.7,0.4,29.99,North,355,1.0,6.0,46,0.00,,,0.00,Wunderground v.1.15,2013-01-22 13:49:00,
2013-01-22 08:54:00,17.8,0.0,29.99,NW,306,4.0,18.0,45,0.00,,,0.00,Wunderground v.1.15,2013-01-22 13:54:00,
2013-01-22 08:59:00,17.8,-0.5,29.99,North,360,4.0,5.0,44,0.00,,,0.00,Wunderground v.1.15,2013-01-22 13:59:00,
2013-01-22 09:04:00,18.0,-0.3,29.99,WNW,294,5.0,8.0,44,0.00,,,0.00,Wunderground v.1.15,2013-01-22 14:04:00,
2013-01-22 09:10:00,18.3,0.5,29.99,WNW,292,6.0,10.0,45,0.00,,,0.00,Wunderground v.1.15,2013-01-22 14:10:00,
2013-01-22 09:15:00,18.4,0.1,30.00,WNW,302,1.0,10.0,44,0.00,,,0.00,Wunderground v.1.15,2013-01-22 14:15:00,
2013-01-22 09:20:00,18.6,0.3,30.00,WNW,284,5.0,5.0,44,0.00,,,0.00,Wunderground v.1.15,2013-01-22 14:20:00,
2013-01-22 09:25:00,18.8,0.5,30.00,NW,306,5.0,10.0,44,0.00,,,0.00,Wunderground v.1.15,2013-01-22 14:25:00,
2013-01-22 09:30:00,18.8,0.0,30.01,NNW,344,1.0,4.0,43,0.00,,,0.00,Wunderground v.1.15,2013-01-22 14:30:00,
2013-01-22 09:35:00,18.6,-0.2,30.01,NNW,333,0.0,11.0,43,0.00,,,0.00,Wunderground v.1.15,2013-01-22 14:35:00,
2013-01-22 09:40:00,18.8,0.5,30.01,WNW,300,2.0,5.0,44,0.00,,,0.00,Wunderground v.1.15,2013-01-22 14:40:00,
2013-01-22 09:45:00,19.1,0.7,30.01,West,278,7.0,15.0,44,0.00,,,0.00,Wunderground v.1.15,2013-01-22 14:45:00,
2013-01-22 09:50:00,19.1,0.2,30.01,WNW,292,4.0,6.0,43,0.00,,,0.00,Wunderground v.1.15,2013-01-22 14:50:00,
2013-01-22 09:55:00,19.2,0.3,30.01,North,351,7.0,14.0,43,0.00,,,0.00,Wunderground v.1.15,2013-01-22 14:55:00,
2013-01-22 10:00:00,19.4,1.0,30.02,NW,317,10.0,10.0,44,0.00,,,0.00,Wunderground v.1.15,2013-01-22 15:00:00,
2013-01-22 10:05:00,19.4,0.0,30.02,NNE,22,11.0,13.0,42,0.00,,,0.00,Wunderground v.1.15,2013-01-22 15:05:00,
2013-01-22 10:10:00,19.2,-0.2,30.02,NW,313,4.0,6.0,42,0.00,,,0.00,Wunderground v.1.15,2013-01-22 15:10:00,
2013-01-22 10:15:00,19.5,0.6,30.02,WNW,290,0.0,6.0,43,0.00,,,0.00,Wunderground v.1.15,2013-01-22 15:15:00,
2013-01-22 10:20:00,19.9,1.0,30.02,NW,310,5.0,5.0,43,0.00,,,0.00,Wunderground v.1.15,2013-01-22 15:20:00,
2013-01-22 10:25:00,19.9,0.5,30.02,NNW,327,7.0,11.0,42,0.00,,,0.00,Wunderground v.1.15,2013-01-22 15:25:00,
2013-01-22 10:30:00,19.9,-0.1,30.02,WNW,299,1.0,5.0,41,0.00,,,0.00,Wunderground v.1.15,2013-01-22 15:30:00,
2013-01-22 10:35:00,20.2,0.7,30.02,North,360,1.0,9.0,42,0.00,,,0.00,Wunderground v.1.15,2013-01-22 15:35:00,
2013-01-22 10:40:00,20.0,0.0,30.02,WNW,302,4.0,8.0,41,0.00,,,0.00,Wunderground v.1.15,2013-01-22 15:40:00,
2013-01-22 10:45:00,20.0,-0.5,30.03,North,351,4.0,15.0,40,0.00,,,0.00,Wunderground v.1.15,2013-01-22 15:45:00,
2013-01-22 10:50:00,19.9,-0.1,30.03,NW,310,6.0,6.0,41,0.00,,,0.00,Wunderground v.1.15,2013-01-22 15:50:00,
2013-01-22 10:55:00,19.9,-0.1,30.03,NW,306,3.0,9.0,41,0.00,,,0.00,Wunderground v.1.15,2013-01-22 15:55:00,
2013-01-22 11:00:00,19.4,-1.0,30.02,NW,309,1.0,4.0,40,0.00,,,0.00,Wunderground v.1.15,2013-01-22 16:00:00,
2013-01-22 11:05:00,19.7,-0.2,30.02,WNW,294,3.0,12.0,41,0.00,,,0.00,Wunderground v.1.15,2013-01-22 16:05:00,
2013-01-22 11:10:00,20.0,0.0,30.02,NNW,335,5.0,6.0,41,0.00,,,0.00,Wunderground v.1.15,2013-01-22 16:10:00,
2013-01-22 11:15:00,19.9,-0.6,30.02,WNW,291,1.0,8.0,40,0.00,,,0.00,Wunderground v.1.15,2013-01-22 16:15:00,
2013-01-22 11:20:00,19.4,-1.0,30.02,North,355,4.0,9.0,40,0.00,,,0.00,Wunderground v.1.15,2013-01-22 16:20:00,
2013-01-22 11:25:00,19.4,-1.6,30.02,NW,323,8.0,11.0,39,0.00,,,0.00,Wunderground v.1.15,2013-01-22 16:25:00,
2013-01-22 11:30:00,20.0,-0.5,30.01,NW,313,2.0,5.0,40,0.00,,,0.00,Wunderground v.1.15,2013-01-22 16:30:00,
2013-01-22 11:35:00,20.5,0.5,30.01,WNW,292,6.0,11.0,41,0.00,,,0.00,Wunderground v.1.15,2013-01-22 16:35:00,
2013-01-22 11:40:00,20.5,0.0,30.01,West,267,4.0,5.0,40,0.00,,,0.00,Wunderground v.1.15,2013-01-22 16:40:00,
2013-01-22 11:45:00,20.0,-0.5,30.01,NNW,344,13.0,13.0,40,0.00,,,0.00,Wunderground v.1.15,2013-01-22 16:45:00,
2013-01-22 11:50:00,20.0,-0.5,30.01,NW,323,3.0,5.0,40,0.00,,,0.00,Wunderground v.1.15,2013-01-22 16:50:00,
2013-01-22 11:55:00,20.3,-1.3,30.01,NNW,346,9.0,15.0,38,0.00,,,0.00,Wunderground v.1.15,2013-01-22 16:55:00,
2013-01-22 12:00:00,20.3,-1.3,30.00,WNW,300,6.0,6.0,38,0.00,,,0.00,Wunderground v.1.15,2013-01-22 17:00:00,
2013-01-22 12:05:00,20.5,-1.1,30.00,NW,317,2.0,10.0,38,0.00,,,0.00,Wunderground v.1.15,2013-01-22 17:05:00,
2013-01-22 12:10:00,21.0,-1.2,30.00,SW,233,3.0,7.0,37,0.00,,,0.00,Wunderground v.1.15,2013-01-22 17:10:00,
2013-01-22 12:15:00,21.0,-3.0,30.00,NW,309,4.0,15.0,34,0.00,,,0.00,Wunderground v.1.15,2013-01-22 17:15:00,
2013-01-22 12:20:00,20.8,-3.2,30.00,WNW,294,6.0,8.0,34,0.00,,,0.00,Wunderground v.1.15,2013-01-22 17:20:00,
2013-01-22 12:25:00,21.0,-3.0,30.00,NW,319,9.0,11.0,34,0.00,,,0.00,Wunderground v.1.15,2013-01-22 17:25:00,
2013-01-22 12:30:00,21.0,-3.0,29.99,WNW,302,4.0,8.0,34,0.00,,,0.00,Wunderground v.1.15,2013-01-22 17:30:00,
2013-01-22 12:36:00,21.1,-2.9,29.99,NNW,330,2.0,20.0,34,0.00,,,0.00,Wunderground v.1.15,2013-01-22 17:36:00,
2013-01-22 12:41:00,21.1,-2.9,29.99,North,360,6.0,12.0,34,0.00,,,0.00,Wunderground v.1.15,2013-01-22 17:41:00,
2013-01-22 12:46:00,20.8,-3.8,29.99,NNW,338,1.0,16.0,33,0.00,,,0.00,Wunderground v.1.15,2013-01-22 17:46:00,
2013-01-22 12:51:00,20.6,-4.0,29.99,NW,309,4.0,11.0,33,0.00,,,0.00,Wunderground v.1.15,2013-01-22 17:51:00,
2013-01-22 12:56:00,20.6,-4.0,29.99,NW,304,4.0,12.0,33,0.00,,,0.00,Wunderground v.1.15,2013-01-22 17:56:00,
2013-01-22 13:01:00,20.8,-3.2,29.99,West,279,2.0,5.0,34,0.00,,,0.00,Wunderground v.1.15,2013-01-22 18:01:00,
2013-01-22 13:06:00,20.8,-3.8,29.99,WNW,301,5.0,9.0,33,0.00,,,0.00,Wunderground v.1.15,2013-01-22 18:06:00,
2013-01-22 13:11:00,21.1,-3.6,29.99,WNW,302,5.0,6.0,33,0.00,,,0.00,Wunderground v.1.15,2013-01-22 18:11:00,
2013-01-22 13:16:00,21.6,-3.8,29.98,NNW,341,6.0,15.0,32,0.00,,,0.00,Wunderground v.1.15,2013-01-22 18:16:00,
2013-01-22 13:21:00,21.8,-4.3,29.98,SW,232,2.0,9.0,31,0.00,,,0.00,Wunderground v.1.15,2013-01-22 18:21:00,
2013-01-22 13:26:00,21.3,-6.1,29.98,WNW,292,6.0,13.0,29,0.00,,,0.00,Wunderground v.1.15,2013-01-22 18:26:00,
2013-01-22 13:31:00,20.8,-5.8,29.99,NW,304,5.0,6.0,30,0.00,,,0.00,Wunderground v.1.15,2013-01-22 18:31:00,
2013-01-22 13:36:00,21.0,-5.6,29.99,West,281,0.0,9.0,30,0.00,,,0.00,Wunderground v.1.15,2013-01-22 18:36:00,
2013-01-22 13:41:00,21.0,-5.6,29.99,NNW,335,4.0,14.0,30,0.00,,,0.00,Wunderground v.1.15,2013-01-22 18:41:00,
2013-01-22 13:46:00,21.4,-4.6,29.99,West,278,7.0,14.0,31,0.00,,,0.00,Wunderground v.1.15,2013-01-22 18:46:00,
2013-01-22 13:51:00,21.1,-5.6,29.99,North,360,2.0,8.0,30,0.00,,,0.00,Wunderground v.1.15,2013-01-22 18:51:00,
2013-01-22 13:56:00,21.1,-6.3,29.99,WNW,291,7.0,12.0,29,0.00,,,0.00,Wunderground v.1.15,2013-01-22 18:56:00,
2013-01-22 14:02:00,21.4,-5.3,29.99,NNW,331,1.0,6.0,30,0.00,,,0.00,Wunderground v.1.15,2013-01-22 19:02:00,
2013-01-22 14:07:00,21.1,-6.3,29.99,NW,306,5.0,8.0,29,0.00,,,0.00,Wunderground v.1.15,2013-01-22 19:07:00,
2013-01-22 14:12:00,21.1,-5.6,29.99,NW,321,1.0,8.0,30,0.00,,,0.00,Wunderground v.1.15,2013-01-22 19:12:00,
2013-01-22 14:17:00,21.3,-5.4,29.99,West,275,7.0,15.0,30,0.00,,,0.00,Wunderground v.1.15,2013-01-22 19:17:00,
2013-01-22 14:22:00,21.1,-7.0,29.99,West,275,7.0,13.0,28,0.00,,,0.00,Wunderground v.1.15,2013-01-22 19:22:00,
2013-01-22 14:27:00,21.0,-5.6,29.99,WNW,287,9.0,13.0,30,0.00,,,0.00,Wunderground v.1.15,2013-01-22 19:27:00,
2013-01-22 14:32:00,21.1,-5.6,29.99,WNW,283,6.0,8.0,30,0.00,,,0.00,Wunderground v.1.15,2013-01-22 19:32:00,
2013-01-22 14:37:00,21.1,-6.3,29.99,NNW,337,0.0,12.0,29,0.00,,,0.00,Wunderground v.1.15,2013-01-22 19:37:00,
2013-01-22 14:42:00,21.1,-5.6,29.99,NW,313,1.0,8.0,30,0.00,,,0.00,Wunderground v.1.15,2013-01-22 19:42:00,
2013-01-22 14:47:00,21.3,-4.7,30.00,NNE,31,1.0,8.0,31,0.00,,,0.00,Wunderground v.1.15,2013-01-22 19:47:00,
2013-01-22 14:52:00,20.6,-6.7,30.00,NNW,342,10.0,16.0,29,0.00,,,0.00,Wunderground v.1.15,2013-01-22 19:52:00,
2013-01-22 14:58:00,20.3,-5.6,30.00,NW,319,4.0,16.0,31,0.00,,,0.00,Wunderground v.1.15,2013-01-22 19:58:00,
2013-01-22 15:03:00,20.2,-5.7,30.00,North,351,6.0,9.0,31,0.00,,,0.00,Wunderground v.1.15,2013-01-22 20:03:00,
2013-01-22 15:08:00,20.0,-5.8,30.00,WNW,290,4.0,14.0,31,0.00,,,0.00,Wunderground v.1.15,2013-01-22 20:08:00,
2013-01-22 15:13:00,20.2,-5.7,30.00,WNW,298,2.0,12.0,31,0.00,,,0.00,Wunderground v.1.15,2013-01-22 20:13:00,
2013-01-22 15:18:00,20.3,-6.3,30.00,North,360,4.0,12.0,30,0.00,,,0.00,Wunderground v.1.15,2013-01-22 20:18:00,
2013-01-22 15:23:00,20.2,-7.0,30.00,NNW,346,9.0,12.0,29,0.00,,,0.00,Wunderground v.1.15,2013-01-22 20:23:00,
2013-01-22 15:28:00,19.9,-5.9,30.00,NW,317,1.0,12.0,31,0.00,,,0.00,Wunderground v.1.15,2013-01-22 20:28:00,
2013-01-22 15:33:00,19.9,-5.9,30.01,NNE,25,6.0,9.0,31,0.00,,,0.00,Wunderground v.1.15,2013-01-22 20:33:00,
2013-01-22 15:38:00,19.9,-5.3,30.01,WNW,302,2.0,11.0,32,0.00,,,0.00,Wunderground v.1.15,2013-01-22 20:38:00,
2013-01-22 15:43:00,19.7,-6.1,30.01,NW,321,2.0,13.0,31,0.00,,,0.00,Wunderground v.1.15,2013-01-22 20:43:00,
2013-01-22 15:48:00,19.5,-6.3,30.02,NW,321,1.0,13.0,31,0.00,,,0.00,Wunderground v.1.15,2013-01-22 20:48:00,
2013-01-22 15:53:00,19.4,-6.4,30.02,NNW,345,10.0,14.0,31,0.00,,,0.00,Wunderground v.1.15,2013-01-22 20:53:00,
2013-01-22 15:58:00,19.2,-6.5,30.02,NW,319,4.0,14.0,31,0.00,,,0.00,Wunderground v.1.15,2013-01-22 20:58:00,
2013-01-22 16:03:00,19.2,-5.9,30.02,WNW,297,1.0,8.0,32,0.00,,,0.00,Wunderground v.1.15,2013-01-22 21:03:00,
2013-01-22 16:08:00,19.1,-6.0,30.02,North,9,1.0,11.0,32,0.00,,,0.00,Wunderground v.1.15,2013-01-22 21:08:00,
2013-01-22 16:13:00,19.1,-6.0,30.02,NNW,332,2.0,7.0,32,0.00,,,0.00,Wunderground v.1.15,2013-01-22 21:13:00,
2013-01-22 16:18:00,18.9,-6.2,30.03,WNW,293,0.0,9.0,32,0.00,,,0.00,Wunderground v.1.15,2013-01-22 21:18:00,
2013-01-22 16:23:00,18.9,-6.2,30.03,NW,323,1.0,7.0,32,0.00,,,0.00,Wunderground v.1.15,2013-01-22 21:23:00,
2013-01-22 16:28:00,18.8,-5.6,30.03,WNW,288,3.0,10.0,33,0.00,,,0.00,Wunderground v.1.15,2013-01-22 21:28:00,
2013-01-22 16:32:00,18.6,-5.8,30.04,NNW,337,3.0,5.0,33,0.00,,,0.00,Wunderground v.1.15,2013-01-22 21:32:00,
2013-01-22 16:37:00,18.4,-5.3,30.04,West,270,2.0,10.0,34,0.00,,,0.00,Wunderground v.1.15,2013-01-22 21:37:00,
2013-01-22 16:42:00,18.3,-4.8,30.04,NW,323,4.0,4.0,35,0.00,,,0.00,Wunderground v.1.15,2013-01-22 21:42:00,
2013-01-22 16:47:00,18.1,-5.0,30.05,NW,314,0.0,8.0,35,0.00,,,0.00,Wunderground v.1.15,2013-01-22 21:47:00,
2013-01-22 16:52:00,18.0,-5.1,30.05,NW,309,1.0,7.0,35,0.00,,,0.00,Wunderground v.1.15,2013-01-22 21:52:00,
2013-01-22 16:57:00,17.8,-4.7,30.05,NW,306,1.0,7.0,36,0.00,,,0.00,Wunderground v.1.15,2013-01-22 21:57:00,
2013-01-22 17:02:00,17.7,-4.8,30.05,WNW,286,4.0,7.0,36,0.00,,,0.00,Wunderground v.1.15,2013-01-22 22:02:00,
2013-01-22 17:07:00,17.7,-4.2,30.05,NNW,329,0.0,7.0,37,0.00,,,0.00,Wunderground v.1.15,2013-01-22 22:07:00,
2013-01-22 17:12:00,17.5,-4.4,30.05,NE,44,1.0,4.0,37,0.00,,,0.00,Wunderground v.1.15,2013-01-22 22:12:00,
2013-01-22 17:17:00,17.3,-4.6,30.06,WNW,298,0.0,5.0,37,0.00,,,0.00,Wunderground v.1.15,2013-01-22 22:17:00,
2013-01-22 17:22:00,17.3,-5.1,30.06,NW,320,0.0,4.0,36,0.00,,,0.00,Wunderground v.1.15,2013-01-22 22:22:00,
2013-01-22 17:27:00,17.3,-5.1,30.06,West,262,1.0,6.0,36,0.00,,,0.00,Wunderground v.1.15,2013-01-22 22:27:00,
2013-01-22 17:32:00,17.2,-4.7,30.07,West,281,2.0,4.0,37,0.00,,,0.00,Wunderground v.1.15,2013-01-22 22:32:00,
2013-01-22 17:37:00,17.2,-4.7,30.07,NNW,333,0.0,10.0,37,0.00,,,0.00,Wunderground v.1.15,2013-01-22 22:37:00,
2013-01-22 17:42:00,17.0,-4.8,30.07,WNW,298,0.0,6.0,37,0.00,,,0.00,Wunderground v.1.15,2013-01-22 22:42:00,
2013-01-22 17:47:00,17.0,-4.3,30.07,NW,323,3.0,6.0,38,0.00,,,0.00,Wunderground v.1.15,2013-01-22 22:47:00,
2013-01-22 17:52:00,16.9,-4.9,30.07,WNW,294,0.0,2.0,37,0.00,,,0.00,Wunderground v.1.15,2013-01-22 22:52:00,
2013-01-22 17:57:00,16.9,-4.4,30.07,NNW,348,2.0,7.0,38,0.00,,,0.00,Wunderground v.1.15,2013-01-22 22:57:00,
2013-01-22 18:02:00,16.9,-4.9,30.08,NNW,329,0.0,1.0,37,0.00,,,0.00,Wunderground v.1.15,2013-01-22 23:02:00,
2013-01-22 18:07:00,16.7,-5.1,30.08,NW,320,2.0,3.0,37,0.00,,,0.00,Wunderground v.1.15,2013-01-22 23:07:00,
2013-01-22 18:12:00,16.7,-5.1,30.08,NW,306,0.0,2.0,37,0.00,,,0.00,Wunderground v.1.15,2013-01-22 23:12:00,
2013-01-22 18:17:00,16.5,-5.3,30.08,NW,321,4.0,4.0,37,0.00,,,0.00,Wunderground v.1.15,2013-01-22 23:17:00,
2013-01-22 18:23:00,16.5,-5.3,30.08,NW,306,3.0,6.0,37,0.00,,,0.00,Wunderground v.1.15,2013-01-22 23:23:00,
2013-01-22 18:28:00,16.4,-5.9,30.08,WNW,289,4.0,8.0,36,0.00,,,0.00,Wunderground v.1.15,2013-01-22 23:28:00,
2013-01-22 18:33:00,16.4,-5.9,30.09,NNW,327,5.0,9.0,36,0.00,,,0.00,Wunderground v.1.15,2013-01-22 23:33:00,
2013-01-22 18:38:00,16.4,-5.9,30.09,North,351,0.0,9.0,36,0.00,,,0.00,Wunderground v.1.15,2013-01-22 23:38:00,
2013-01-22 18:43:00,16.4,-6.5,30.09,NE,36,2.0,6.0,35,0.00,,,0.00,Wunderground v.1.15,2013-01-22 23:43:00,
2013-01-22 18:48:00,16.4,-6.5,30.10,NW,321,1.0,8.0,35,0.00,,,0.00,Wunderground v.1.15,2013-01-22 23:48:00,
2013-01-22 18:53:00,16.2,-6.1,30.10,NNW,330,0.0,3.0,36,0.00,,,0.00,Wunderground v.1.15,2013-01-22 23:53:00,
2013-01-22 18:58:00,16.2,-5.6,30.10,NW,326,0.0,5.0,37,0.00,,,0.00,Wunderground v.1.15,2013-01-22 23:58:00,
2013-01-22 19:03:00,16.1,-5.6,30.10,North,360,0.0,5.0,37,0.00,,,0.00,Wunderground v.1.15,2013-01-23 00:03:00,
2013-01-22 19:08:00,16.1,-5.1,30.10,NW,323,0.0,5.0,38,0.00,,,0.00,Wunderground v.1.15,2013-01-23 00:08:00,
2013-01-22 19:13:00,16.1,-5.1,30.10,NNW,329,0.0,2.0,38,0.00,,,0.00,Wunderground v.1.15,2013-01-23 00:13:00,
2013-01-22 19:18:00,16.1,-5.1,30.11,NW,310,2.0,6.0,38,0.00,,,0.00,Wunderground v.1.15,2013-01-23 00:18:00,
2013-01-22 19:23:00,16.1,-5.1,30.11,NW,304,0.0,4.0,38,0.00,,,0.00,Wunderground v.1.15,2013-01-23 00:23:00,
2013-01-22 19:28:00,15.9,-4.7,30.11,NW,305,0.0,5.0,39,0.00,,,0.00,Wunderground v.1.15,2013-01-23 00:28:00,
2013-01-22 19:33:00,15.9,-4.7,30.11,WNW,288,1.0,6.0,39,0.00,,,0.00,Wunderground v.1.15,2013-01-23 00:33:00,
2013-01-22 19:38:00,15.9,-4.7,30.11,WNW,285,1.0,6.0,39,0.00,,,0.00,Wunderground v.1.15,2013-01-23 00:38:00,
2013-01-22 19:43:00,15.9,-4.7,30.11,WNW,298,4.0,5.0,39,0.00,,,0.00,Wunderground v.1.15,2013-01-23 00:43:00,
2013-01-22 19:48:00,15.7,-4.9,30.11,NNW,329,1.0,5.0,39,0.00,,,0.00,Wunderground v.1.15,2013-01-23 00:48:00,
2013-01-22 19:53:00,15.7,-4.9,30.11,NW,309,0.0,5.0,39,0.00,,,0.00,Wunderground v.1.15,2013-01-23 00:53:00,
2013-01-22 19:58:00,15.7,-4.9,30.11,WNW,302,0.0,7.0,39,0.00,,,0.00,Wunderground v.1.15,2013-01-23 00:58:00,
2013-01-22 20:03:00,15.6,-4.5,30.13,West,280,0.0,1.0,40,0.00,,,0.00,Wunderground v.1.15,2013-01-23 01:03:00,
2013-01-22 20:08:00,15.6,-4.5,30.13,West,279,0.0,7.0,40,0.00,,,0.00,Wunderground v.1.15,2013-01-23 01:08:00,
2013-01-22 20:13:00,15.4,-5.2,30.13,WNW,300,0.0,7.0,39,0.00,,,0.00,Wunderground v.1.15,2013-01-23 01:13:00,
2013-01-22 20:18:00,15.4,-4.7,30.13,NW,311,6.0,10.0,40,0.00,,,0.00,Wunderground v.1.15,2013-01-23 01:18:00,
2013-01-22 20:23:00,15.4,-4.7,30.13,NW,304,3.0,12.0,40,0.00,,,0.00,Wunderground v.1.15,2013-01-23 01:23:00,